createdAt,value
2022-08-05T00:02:16.376Z,42.3
2022-08-05T00:08:01.768Z,43
2022-08-05T00:13:20.157Z,42
2022-08-05T00:18:56.473Z,41.6
2022-08-05T00:24:31.566Z,41.6
2022-08-05T00:29:50.880Z,41
2022-08-05T00:35:10.363Z,40.9
2022-08-05T00:40:30.304Z,40
2022-08-05T00:45:49.004Z,40
2022-08-05T00:51:53.343Z,40.8
2022-08-05T00:57:11.836Z,40.6
2022-08-05T01:02:31.086Z,40.5
2022-08-05T01:08:47.185Z,40.6
2022-08-05T01:14:09.908Z,41.4
2022-08-05T01:20:03.514Z,41.3
2022-08-05T01:25:21.822Z,41.1
2022-08-05T01:30:55.587Z,41.4
2022-08-05T01:36:16.962Z,41.6
2022-08-05T01:41:45.053Z,41.8
2022-08-05T01:47:07.211Z,41.9
2022-08-05T01:52:28.065Z,42.2
2022-08-05T01:58:40.617Z,41.5
2022-08-05T02:03:59.190Z,42.4
2022-08-05T02:09:21.762Z,42
2022-08-05T02:14:47.886Z,40.7
2022-08-05T02:20:06.198Z,41.1
2022-08-05T02:25:33.588Z,40.1
2022-08-05T02:31:15.057Z,40.5
2022-08-05T02:36:33.618Z,39.8
2022-08-05T02:42:02.256Z,39.8
2022-08-05T02:47:21.784Z,40
2022-08-05T02:52:41.713Z,41
2022-08-05T02:58:13.920Z,41.3
2022-08-05T03:04:08.835Z,40.6
2022-08-05T03:09:52.031Z,39.6
2022-08-05T03:15:13.133Z,40.4
2022-08-05T03:20:31.058Z,40.5
2022-08-05T03:26:32.816Z,39.2
2022-08-05T03:32:00.998Z,39.9
2022-08-05T03:37:19.780Z,40.1
2022-08-05T03:42:52.853Z,38.6
2022-08-05T03:48:11.710Z,38.9
2022-08-05T03:56:26.872Z,38.4
2022-08-05T04:01:49.453Z,39.2
2022-08-05T04:07:08.654Z,39.6
2022-08-05T04:12:27.694Z,38.9
2022-08-05T04:18:00.900Z,39.5
2022-08-05T04:24:14.215Z,39.4
2022-08-05T04:29:37.703Z,38.5
2022-08-05T04:34:58.589Z,39.1
2022-08-05T04:40:19.986Z,39.4
2022-08-05T04:45:56.035Z,39.2
2022-08-05T04:51:14.612Z,39.6
2022-08-05T04:56:37.709Z,39.7
2022-08-05T05:02:43.458Z,38.9
2022-08-05T05:08:02.978Z,39.2
2022-08-05T05:13:21.821Z,40
2022-08-05T05:19:17.988Z,38.6
2022-08-05T05:25:01.506Z,38.7
2022-08-05T05:30:34.651Z,39
2022-08-05T05:35:53.891Z,38.5
2022-08-05T05:41:18.906Z,39
2022-08-05T05:46:44.267Z,38.2
2022-08-05T05:52:08.226Z,38.7
2022-08-05T05:57:53.272Z,39.8
2022-08-05T06:04:03.737Z,39.6
2022-08-05T06:10:03.454Z,40.1
2022-08-05T06:16:37.593Z,39.7
2022-08-05T06:21:55.814Z,39.2
2022-08-05T06:26:58.406Z,39.2
2022-08-05T06:32:29.851Z,40.6
2022-08-05T06:38:10.053Z,40
2022-08-05T06:44:01.057Z,39.6
2022-08-05T06:50:00.013Z,39.5
2022-08-05T06:55:22.041Z,39.7
2022-08-05T07:00:42.064Z,40.1
2022-08-05T07:06:14.044Z,40.1
2022-08-05T07:11:40.139Z,39.9
2022-08-05T07:18:12.619Z,40.4
2022-08-05T07:23:52.218Z,39.8
2022-08-05T07:29:12.808Z,39.7
2022-08-05T07:34:33.695Z,40.2
2022-08-05T07:40:33.719Z,39.2
2022-08-05T07:45:59.394Z,40.5
2022-08-05T07:51:41.192Z,40.7
2022-08-05T07:58:03.932Z,40.3
2022-08-05T08:03:22.369Z,39.7
2022-08-05T08:08:40.570Z,39.8
2022-08-05T08:14:01.866Z,38.9
2022-08-05T08:21:03.974Z,39.1
2022-08-05T08:26:30.991Z,40.2
2022-08-05T08:31:36.204Z,39.9
2022-08-05T08:37:05.648Z,39
2022-08-05T08:42:53.102Z,39.3
2022-08-05T08:50:07.933Z,38.8
2022-08-05T08:56:06.799Z,39.1
2022-08-05T09:01:25.603Z,39.9
2022-08-05T09:06:50.063Z,40.6
2022-08-05T09:12:28.089Z,40.2
2022-08-05T09:17:53.181Z,39.5
2022-08-05T09:23:22.139Z,38.9
2022-08-05T09:28:42.172Z,38
2022-08-05T09:34:01.796Z,38.7
2022-08-05T09:39:23.683Z,36.6
2022-08-05T09:46:09.038Z,35.8
2022-08-05T09:51:36.895Z,37.4
2022-08-05T09:57:01.410Z,34.5
2022-08-05T10:02:21.619Z,35
2022-08-05T10:08:38.405Z,35.9
2022-08-05T10:14:00.882Z,36.7
2022-08-05T10:20:09.741Z,36.5
2022-08-05T10:25:29.375Z,38
2022-08-05T10:33:03.177Z,38.1
2022-08-05T10:38:28.788Z,38
2022-08-05T10:43:49.803Z,38.8
2022-08-05T10:49:17.179Z,38.1
2022-08-05T10:54:58.031Z,38.1
2022-08-05T11:00:23.272Z,38.6
2022-08-05T11:05:49.678Z,38.4
2022-08-05T11:11:17.119Z,39.5
2022-08-05T11:18:03.638Z,39
2022-08-05T11:24:02.420Z,39.2
2022-08-05T11:29:23.410Z,39.1
2022-08-05T11:34:56.674Z,39.2
2022-08-05T11:40:23.138Z,39.5
2022-08-05T11:46:33.562Z,39
2022-08-05T11:51:53.505Z,40.3
2022-08-05T11:57:27.490Z,39.3
2022-08-05T12:02:50.681Z,39.8
2022-08-05T12:08:18.810Z,41.1
2022-08-05T12:13:50.266Z,40.2
2022-08-05T12:19:10.130Z,41.3
2022-08-05T12:25:43.194Z,41.3
2022-08-05T12:31:03.460Z,41.6
2022-08-05T12:36:26.227Z,40.9
2022-08-05T12:41:44.764Z,41.2
2022-08-05T12:47:04.006Z,40.7
2022-08-05T12:52:38.075Z,41.8
2022-08-05T12:58:58.580Z,41.4
2022-08-05T13:04:25.217Z,41.2
2022-08-05T13:09:53.585Z,41.5
2022-08-05T13:15:51.114Z,41.7
2022-08-05T13:21:12.591Z,42.3
2022-08-05T13:26:32.208Z,42
2022-08-05T13:32:06.700Z,41.8
2022-08-05T13:37:35.913Z,41.8
2022-08-05T13:42:56.433Z,41.7
2022-08-05T13:49:01.501Z,42.6
2022-08-05T13:54:26.162Z,42.2
2022-08-05T14:00:02.666Z,42.6
2022-08-05T14:06:27.262Z,42.1
2022-08-05T14:12:33.010Z,42.6
2022-08-05T14:18:00.641Z,41.9
2022-08-05T14:23:33.079Z,42.3
2022-08-05T14:28:55.063Z,43.2
2022-08-05T14:34:14.141Z,43.3
2022-08-05T14:39:59.372Z,42.7
2022-08-05T14:45:17.841Z,44.7
2022-08-05T14:50:41.152Z,44.2
2022-08-05T14:56:01.066Z,45.4
2022-08-05T15:01:49.993Z,44.4
2022-08-05T15:07:08.651Z,43.4
2022-08-05T15:13:00.786Z,44.6
2022-08-05T15:18:22.477Z,43.7
2022-08-05T15:23:40.996Z,44.5
2022-08-05T15:29:02.956Z,44
2022-08-05T15:34:34.252Z,43.6
2022-08-05T15:41:24.923Z,42.9
2022-08-05T15:47:17.506Z,43.3
2022-08-05T15:52:58.608Z,42.5
2022-08-05T15:58:23.885Z,42.3
2022-08-05T16:03:42.342Z,41.7
2022-08-05T16:09:02.339Z,40.9
2022-08-05T16:14:20.817Z,41.2
2022-08-05T16:20:12.558Z,41.3
2022-08-05T16:25:35.229Z,41.7
2022-08-05T16:30:54.598Z,40.7
2022-08-05T16:36:13.083Z,40.9
2022-08-05T16:42:28.565Z,40.4
2022-08-05T16:48:03.153Z,40.8
2022-08-05T16:54:16.185Z,40
2022-08-05T17:00:10.576Z,40.4
2022-08-05T17:05:29.171Z,40.5
2022-08-05T17:10:49.316Z,40.7
2022-08-05T17:16:37.146Z,40
2022-08-05T17:21:56.109Z,39.7
2022-08-05T17:27:16.899Z,40.7
2022-08-05T17:32:36.133Z,39.8
2022-08-05T17:38:05.459Z,39.7
2022-08-05T17:43:54.763Z,39.3
2022-08-05T17:48:58.842Z,39.5
2022-08-05T17:54:23.898Z,39
2022-08-05T17:59:45.838Z,37.1
2022-08-05T18:05:22.056Z,35.5
2022-08-05T18:10:40.328Z,34.8
2022-08-05T18:16:00.475Z,35.3
2022-08-05T18:22:11.416Z,36.6
2022-08-05T18:27:38.439Z,37.4
2022-08-05T18:33:02.027Z,36
2022-08-05T18:38:27.110Z,35.5
2022-08-05T18:43:51.532Z,35.2
2022-08-05T18:49:13.062Z,35.9
2022-08-05T18:54:32.568Z,38
2022-08-05T19:00:20.178Z,38.5
2022-08-05T19:06:34.284Z,39.2
2022-08-05T19:12:03.258Z,38.8
2022-08-05T19:17:33.811Z,39.8
2022-08-05T19:24:13.388Z,39.5
2022-08-05T19:29:39.133Z,39.4
2022-08-05T19:34:58.541Z,39.6
2022-08-05T19:40:10.289Z,40.1
2022-08-05T19:45:37.278Z,39.8
2022-08-05T19:50:55.842Z,37.8
2022-08-05T19:56:34.969Z,38.8
2022-08-05T20:01:54.208Z,38.1
2022-08-05T20:07:14.096Z,38.8
2022-08-05T20:12:32.649Z,38.7
2022-08-05T20:17:53.183Z,37.3
2022-08-05T20:23:14.075Z,38.6
2022-08-05T20:28:36.703Z,39.4
2022-08-05T20:33:56.161Z,39.6
2022-08-05T20:39:17.573Z,39.7
2022-08-05T20:44:39.100Z,39.8
2022-08-05T20:49:59.668Z,40
2022-08-05T20:56:09.977Z,40
2022-08-05T21:01:14.523Z,40.2
2022-08-05T21:06:33.581Z,40
2022-08-05T21:12:12.333Z,40.8
2022-08-05T21:17:36.596Z,40
2022-08-05T21:22:55.689Z,41.4
2022-08-05T21:28:24.178Z,40.5
2022-08-05T21:33:52.517Z,40.7
2022-08-05T21:39:28.349Z,41.3
2022-08-05T21:44:47.508Z,40.7
2022-08-05T21:50:08.021Z,40.9
2022-08-05T21:56:17.217Z,41.2
2022-08-05T22:01:36.388Z,40.4
2022-08-05T22:06:57.645Z,41.1
2022-08-05T22:12:18.343Z,40.5
2022-08-05T22:18:00.530Z,40.5
2022-08-05T22:23:22.130Z,41.5
2022-08-05T22:28:41.025Z,41.9
2022-08-05T22:34:02.446Z,41.9
2022-08-05T22:39:23.265Z,41.2
2022-08-05T22:44:57.168Z,41.7
2022-08-05T22:50:28.019Z,41.6
2022-08-05T22:55:59.917Z,42.2
2022-08-05T23:01:21.005Z,42.7
2022-08-05T23:06:39.585Z,42.3
2022-08-05T23:12:00.946Z,42.1
2022-08-05T23:17:59.937Z,40.9
2022-08-05T23:23:22.510Z,41
2022-08-05T23:28:43.561Z,41.4
2022-08-05T23:34:07.156Z,41
2022-08-05T23:39:55.248Z,41.6
2022-08-05T23:45:16.509Z,41.8
2022-08-05T23:50:34.433Z,41
2022-08-05T23:55:53.240Z,41.1
